sensor_id;sensor_type;location;lat;lon;timestamp;P1;durP1;ratioP1;P2;durP2;ratioP2
39256;SDS011;24958;48.066;11.038;2022-12-29T00:02:17;4.53;;;3.50;;
39256;SDS011;24958;48.066;11.038;2022-12-29T00:04:43;3.87;;;3.27;;
39256;SDS011;24958;48.066;11.038;2022-12-29T00:07:09;4.57;;;3.10;;
39256;SDS011;24958;48.066;11.038;2022-12-29T00:09:36;4.23;;;3.70;;
39256;SDS011;24958;48.066;11.038;2022-12-29T00:12:02;3.87;;;3.47;;
39256;SDS011;24958;48.066;11.038;2022-12-29T00:14:29;4.33;;;3.50;;
39256;SDS011;24958;48.066;11.038;2022-12-29T00:17:14;3.40;;;3.10;;
39256;SDS011;24958;48.066;11.038;2022-12-29T00:19:40;2.00;;;1.80;;
39256;SDS011;24958;48.066;11.038;2022-12-29T00:22:25;1.77;;;1.50;;
39256;SDS011;24958;48.066;11.038;2022-12-29T00:25:10;1.40;;;1.10;;
39256;SDS011;24958;48.066;11.038;2022-12-29T00:27:55;1.20;;;1.10;;
39256;SDS011;24958;48.066;11.038;2022-12-29T00:30:40;1.47;;;1.37;;
39256;SDS011;24958;48.066;11.038;2022-12-29T00:33:29;1.90;;;1.43;;
39256;SDS011;24958;48.066;11.038;2022-12-29T00:36:24;1.77;;;1.67;;
39256;SDS011;24958;48.066;11.038;2022-12-29T00:38:55;1.67;;;1.00;;
39256;SDS011;24958;48.066;11.038;2022-12-29T00:41:41;1.63;;;1.37;;
39256;SDS011;24958;48.066;11.038;2022-12-29T00:44:26;3.37;;;2.73;;
39256;SDS011;24958;48.066;11.038;2022-12-29T00:46:52;4.63;;;3.20;;
39256;SDS011;24958;48.066;11.038;2022-12-29T00:49:18;3.53;;;3.10;;
39256;SDS011;24958;48.066;11.038;2022-12-29T00:52:00;3.73;;;2.93;;
39256;SDS011;24958;48.066;11.038;2022-12-29T00:54:27;3.30;;;2.97;;
39256;SDS011;24958;48.066;11.038;2022-12-29T00:56:54;4.00;;;2.83;;
39256;SDS011;24958;48.066;11.038;2022-12-29T00:59:20;3.10;;;2.33;;
39256;SDS011;24958;48.066;11.038;2022-12-29T01:01:47;3.20;;;2.90;;
39256;SDS011;24958;48.066;11.038;2022-12-29T01:04:13;3.40;;;2.80;;
39256;SDS011;24958;48.066;11.038;2022-12-29T01:06:39;3.17;;;2.43;;
39256;SDS011;24958;48.066;11.038;2022-12-29T01:09:06;2.87;;;2.43;;
39256;SDS011;24958;48.066;11.038;2022-12-29T01:11:51;1.80;;;1.30;;
39256;SDS011;24958;48.066;11.038;2022-12-29T01:14:18;1.40;;;1.30;;
39256;SDS011;24958;48.066;11.038;2022-12-29T01:16:44;1.30;;;1.20;;
39256;SDS011;24958;48.066;11.038;2022-12-29T01:19:11;1.37;;;1.17;;
39256;SDS011;24958;48.066;11.038;2022-12-29T01:21:37;1.27;;;0.90;;
39256;SDS011;24958;48.066;11.038;2022-12-29T01:24:03;1.17;;;0.90;;
39256;SDS011;24958;48.066;11.038;2022-12-29T01:26:29;1.20;;;1.10;;
39256;SDS011;24958;48.066;11.038;2022-12-29T01:28:56;0.70;;;0.70;;
39256;SDS011;24958;48.066;11.038;2022-12-29T01:31:22;0.80;;;0.80;;
39256;SDS011;24958;48.066;11.038;2022-12-29T01:33:48;1.20;;;0.90;;
39256;SDS011;24958;48.066;11.038;2022-12-29T01:36:15;1.10;;;1.00;;
39256;SDS011;24958;48.066;11.038;2022-12-29T01:38:41;1.20;;;1.10;;
39256;SDS011;24958;48.066;11.038;2022-12-29T01:41:08;1.60;;;1.50;;
39256;SDS011;24958;48.066;11.038;2022-12-29T01:43:39;1.87;;;1.00;;
39256;SDS011;24958;48.066;11.038;2022-12-29T01:46:07;1.40;;;1.00;;
39256;SDS011;24958;48.066;11.038;2022-12-29T01:48:39;1.20;;;1.00;;
39256;SDS011;24958;48.066;11.038;2022-12-29T01:51:06;1.60;;;1.20;;
39256;SDS011;24958;48.066;11.038;2022-12-29T01:53:32;1.03;;;0.90;;
39256;SDS011;24958;48.066;11.038;2022-12-29T01:55:59;1.00;;;0.90;;
39256;SDS011;24958;48.066;11.038;2022-12-29T01:58:27;1.13;;;1.03;;
39256;SDS011;24958;48.066;11.038;2022-12-29T02:00:54;0.83;;;0.83;;
39256;SDS011;24958;48.066;11.038;2022-12-29T02:03:20;1.00;;;0.90;;
39256;SDS011;24958;48.066;11.038;2022-12-29T02:05:49;0.70;;;0.70;;
39256;SDS011;24958;48.066;11.038;2022-12-29T02:08:17;0.83;;;0.80;;
39256;SDS011;24958;48.066;11.038;2022-12-29T02:10:44;1.00;;;0.90;;
39256;SDS011;24958;48.066;11.038;2022-12-29T02:13:10;0.80;;;0.80;;
39256;SDS011;24958;48.066;11.038;2022-12-29T02:36:46;1.10;;;0.90;;
39256;SDS011;24958;48.066;11.038;2022-12-29T02:41:53;1.20;;;1.10;;
39256;SDS011;24958;48.066;11.038;2022-12-29T02:46:58;0.80;;;0.80;;
39256;SDS011;24958;48.066;11.038;2022-12-29T02:49:31;0.70;;;0.70;;
39256;SDS011;24958;48.066;11.038;2022-12-29T02:52:03;1.40;;;1.00;;
39256;SDS011;24958;48.066;11.038;2022-12-29T02:54:30;1.20;;;1.10;;
39256;SDS011;24958;48.066;11.038;2022-12-29T02:57:27;1.00;;;0.70;;
39256;SDS011;24958;48.066;11.038;2022-12-29T02:59:58;0.70;;;0.70;;
39256;SDS011;24958;48.066;11.038;2022-12-29T03:07:29;1.00;;;0.90;;
39256;SDS011;24958;48.066;11.038;2022-12-29T03:10:01;1.00;;;0.80;;
39256;SDS011;24958;48.066;11.038;2022-12-29T03:15:26;0.87;;;0.80;;
39256;SDS011;24958;48.066;11.038;2022-12-29T03:18:18;1.10;;;0.80;;
39256;SDS011;24958;48.066;11.038;2022-12-29T03:20:54;0.70;;;0.70;;
39256;SDS011;24958;48.066;11.038;2022-12-29T03:23:21;1.00;;;0.90;;
39256;SDS011;24958;48.066;11.038;2022-12-29T03:25:48;0.67;;;0.67;;
39256;SDS011;24958;48.066;11.038;2022-12-29T03:28:18;1.00;;;0.90;;
39256;SDS011;24958;48.066;11.038;2022-12-29T03:30:46;1.10;;;0.80;;
39256;SDS011;24958;48.066;11.038;2022-12-29T03:33:13;0.70;;;0.70;;
39256;SDS011;24958;48.066;11.038;2022-12-29T03:35:41;1.10;;;1.00;;
39256;SDS011;24958;48.066;11.038;2022-12-29T03:38:13;1.20;;;0.90;;
39256;SDS011;24958;48.066;11.038;2022-12-29T03:40:42;0.70;;;0.70;;
39256;SDS011;24958;48.066;11.038;2022-12-29T03:43:09;0.60;;;0.60;;
39256;SDS011;24958;48.066;11.038;2022-12-29T03:45:35;1.50;;;1.00;;
39256;SDS011;24958;48.066;11.038;2022-12-29T03:48:01;1.60;;;0.90;;
39256;SDS011;24958;48.066;11.038;2022-12-29T03:50:27;1.27;;;0.80;;
39256;SDS011;24958;48.066;11.038;2022-12-29T03:52:53;0.80;;;0.80;;
39256;SDS011;24958;48.066;11.038;2022-12-29T03:55:20;0.70;;;0.70;;
39256;SDS011;24958;48.066;11.038;2022-12-29T03:57:46;1.70;;;0.80;;
39256;SDS011;24958;48.066;11.038;2022-12-29T04:00:12;1.07;;;0.97;;
39256;SDS011;24958;48.066;11.038;2022-12-29T04:02:38;0.70;;;0.70;;
39256;SDS011;24958;48.066;11.038;2022-12-29T04:05:04;1.10;;;1.00;;
39256;SDS011;24958;48.066;11.038;2022-12-29T04:07:30;0.80;;;0.80;;
39256;SDS011;24958;48.066;11.038;2022-12-29T04:09:56;1.47;;;0.80;;
39256;SDS011;24958;48.066;11.038;2022-12-29T04:12:23;1.30;;;0.90;;
39256;SDS011;24958;48.066;11.038;2022-12-29T04:14:49;1.03;;;0.83;;
39256;SDS011;24958;48.066;11.038;2022-12-29T04:17:15;0.80;;;0.70;;
39256;SDS011;24958;48.066;11.038;2022-12-29T04:19:41;1.00;;;0.90;;
39256;SDS011;24958;48.066;11.038;2022-12-29T04:22:07;1.20;;;0.90;;
39256;SDS011;24958;48.066;11.038;2022-12-29T04:24:33;0.97;;;0.80;;
39256;SDS011;24958;48.066;11.038;2022-12-29T04:26:59;1.13;;;0.87;;
39256;SDS011;24958;48.066;11.038;2022-12-29T04:29:25;0.80;;;0.80;;
39256;SDS011;24958;48.066;11.038;2022-12-29T04:31:52;0.70;;;0.70;;
39256;SDS011;24958;48.066;11.038;2022-12-29T04:34:18;1.10;;;1.00;;
39256;SDS011;24958;48.066;11.038;2022-12-29T04:36:44;0.80;;;0.70;;
39256;SDS011;24958;48.066;11.038;2022-12-29T04:39:10;1.00;;;0.90;;
39256;SDS011;24958;48.066;11.038;2022-12-29T04:41:36;0.83;;;0.83;;
39256;SDS011;24958;48.066;11.038;2022-12-29T04:44:02;1.73;;;1.00;;
39256;SDS011;24958;48.066;11.038;2022-12-29T04:46:28;1.10;;;1.00;;
39256;SDS011;24958;48.066;11.038;2022-12-29T04:48:54;1.10;;;0.80;;
39256;SDS011;24958;48.066;11.038;2022-12-29T04:51:20;0.93;;;0.83;;
39256;SDS011;24958;48.066;11.038;2022-12-29T04:53:47;0.80;;;0.80;;
39256;SDS011;24958;48.066;11.038;2022-12-29T04:56:13;1.20;;;0.90;;
39256;SDS011;24958;48.066;11.038;2022-12-29T04:58:39;2.07;;;1.87;;
39256;SDS011;24958;48.066;11.038;2022-12-29T05:01:05;2.07;;;1.90;;
39256;SDS011;24958;48.066;11.038;2022-12-29T05:03:31;2.40;;;1.60;;
39256;SDS011;24958;48.066;11.038;2022-12-29T05:05:58;1.97;;;1.60;;
39256;SDS011;24958;48.066;11.038;2022-12-29T05:08:24;1.30;;;1.20;;
39256;SDS011;24958;48.066;11.038;2022-12-29T05:10:50;1.90;;;1.53;;
39256;SDS011;24958;48.066;11.038;2022-12-29T05:13:17;2.47;;;2.00;;
39256;SDS011;24958;48.066;11.038;2022-12-29T05:15:49;1.70;;;1.30;;
39256;SDS011;24958;48.066;11.038;2022-12-29T05:18:16;1.30;;;1.10;;
39256;SDS011;24958;48.066;11.038;2022-12-29T05:20:42;0.90;;;0.90;;
39256;SDS011;24958;48.066;11.038;2022-12-29T05:23:08;1.70;;;1.10;;
39256;SDS011;24958;48.066;11.038;2022-12-29T05:25:35;1.80;;;1.10;;
39256;SDS011;24958;48.066;11.038;2022-12-29T05:28:01;1.23;;;1.00;;
39256;SDS011;24958;48.066;11.038;2022-12-29T05:30:27;1.87;;;1.23;;
39256;SDS011;24958;48.066;11.038;2022-12-29T05:32:53;1.93;;;1.33;;
39256;SDS011;24958;48.066;11.038;2022-12-29T05:35:19;1.03;;;0.80;;
39256;SDS011;24958;48.066;11.038;2022-12-29T05:37:45;1.10;;;1.00;;
39256;SDS011;24958;48.066;11.038;2022-12-29T05:40:11;1.10;;;0.90;;
39256;SDS011;24958;48.066;11.038;2022-12-29T05:42:38;1.70;;;1.00;;
39256;SDS011;24958;48.066;11.038;2022-12-29T05:45:04;1.23;;;0.90;;
39256;SDS011;24958;48.066;11.038;2022-12-29T05:47:32;0.93;;;0.87;;
39256;SDS011;24958;48.066;11.038;2022-12-29T05:49:59;1.57;;;1.03;;
39256;SDS011;24958;48.066;11.038;2022-12-29T05:52:26;1.03;;;0.93;;
39256;SDS011;24958;48.066;11.038;2022-12-29T05:54:52;1.83;;;1.00;;
39256;SDS011;24958;48.066;11.038;2022-12-29T05:57:18;1.43;;;1.00;;
39256;SDS011;24958;48.066;11.038;2022-12-29T05:59:44;1.20;;;1.03;;
39256;SDS011;24958;48.066;11.038;2022-12-29T06:02:10;1.10;;;1.00;;
39256;SDS011;24958;48.066;11.038;2022-12-29T06:04:36;2.50;;;1.43;;
39256;SDS011;24958;48.066;11.038;2022-12-29T06:07:02;1.40;;;1.30;;
39256;SDS011;24958;48.066;11.038;2022-12-29T06:09:28;1.83;;;1.60;;
39256;SDS011;24958;48.066;11.038;2022-12-29T06:11:55;2.30;;;1.43;;
39256;SDS011;24958;48.066;11.038;2022-12-29T06:14:21;3.63;;;1.60;;
39256;SDS011;24958;48.066;11.038;2022-12-29T06:16:47;2.20;;;1.93;;
39256;SDS011;24958;48.066;11.038;2022-12-29T06:19:13;2.13;;;1.93;;
39256;SDS011;24958;48.066;11.038;2022-12-29T06:21:39;2.40;;;2.20;;
39256;SDS011;24958;48.066;11.038;2022-12-29T06:24:05;3.87;;;3.57;;
39256;SDS011;24958;48.066;11.038;2022-12-29T06:26:32;4.47;;;3.97;;
39256;SDS011;24958;48.066;11.038;2022-12-29T06:28:58;3.33;;;3.03;;
39256;SDS011;24958;48.066;11.038;2022-12-29T06:31:24;2.80;;;2.60;;
39256;SDS011;24958;48.066;11.038;2022-12-29T06:33:50;2.67;;;2.47;;
39256;SDS011;24958;48.066;11.038;2022-12-29T06:36:16;2.40;;;2.10;;
39256;SDS011;24958;48.066;11.038;2022-12-29T06:38:42;1.40;;;1.30;;
39256;SDS011;24958;48.066;11.038;2022-12-29T06:41:08;2.50;;;1.70;;
39256;SDS011;24958;48.066;11.038;2022-12-29T06:43:35;1.63;;;1.50;;
39256;SDS011;24958;48.066;11.038;2022-12-29T06:46:03;1.40;;;1.30;;
39256;SDS011;24958;48.066;11.038;2022-12-29T06:48:29;1.57;;;1.20;;
39256;SDS011;24958;48.066;11.038;2022-12-29T06:50:56;2.53;;;1.10;;
39256;SDS011;24958;48.066;11.038;2022-12-29T06:53:22;3.37;;;1.10;;
39256;SDS011;24958;48.066;11.038;2022-12-29T06:55:48;0.97;;;0.80;;
39256;SDS011;24958;48.066;11.038;2022-12-29T06:58:14;1.13;;;0.80;;
39256;SDS011;24958;48.066;11.038;2022-12-29T07:00:40;1.00;;;0.80;;
39256;SDS011;24958;48.066;11.038;2022-12-29T07:03:06;0.80;;;0.80;;
39256;SDS011;24958;48.066;11.038;2022-12-29T07:05:32;1.30;;;0.87;;
39256;SDS011;24958;48.066;11.038;2022-12-29T07:07:58;0.90;;;0.80;;
39256;SDS011;24958;48.066;11.038;2022-12-29T07:10:25;0.97;;;0.80;;
39256;SDS011;24958;48.066;11.038;2022-12-29T07:12:51;0.90;;;0.70;;
39256;SDS011;24958;48.066;11.038;2022-12-29T07:15:17;0.77;;;0.70;;
39256;SDS011;24958;48.066;11.038;2022-12-29T07:17:43;0.77;;;0.70;;
39256;SDS011;24958;48.066;11.038;2022-12-29T07:20:09;0.73;;;0.73;;
39256;SDS011;24958;48.066;11.038;2022-12-29T07:22:35;0.90;;;0.90;;
39256;SDS011;24958;48.066;11.038;2022-12-29T07:25:01;0.93;;;0.80;;
39256;SDS011;24958;48.066;11.038;2022-12-29T07:27:28;2.07;;;1.10;;
39256;SDS011;24958;48.066;11.038;2022-12-29T07:29:54;1.37;;;1.00;;
39256;SDS011;24958;48.066;11.038;2022-12-29T07:32:20;1.03;;;0.90;;
39256;SDS011;24958;48.066;11.038;2022-12-29T07:34:46;1.77;;;1.20;;
39256;SDS011;24958;48.066;11.038;2022-12-29T07:37:12;1.63;;;1.00;;
39256;SDS011;24958;48.066;11.038;2022-12-29T07:39:39;1.50;;;1.10;;
39256;SDS011;24958;48.066;11.038;2022-12-29T07:42:05;1.60;;;1.50;;
39256;SDS011;24958;48.066;11.038;2022-12-29T07:44:31;1.90;;;1.00;;
39256;SDS011;24958;48.066;11.038;2022-12-29T07:46:57;0.97;;;0.90;;
39256;SDS011;24958;48.066;11.038;2022-12-29T07:49:23;1.13;;;1.00;;
39256;SDS011;24958;48.066;11.038;2022-12-29T07:51:49;1.10;;;1.00;;
39256;SDS011;24958;48.066;11.038;2022-12-29T07:54:15;2.87;;;1.50;;
39256;SDS011;24958;48.066;11.038;2022-12-29T07:56:44;1.30;;;1.10;;
39256;SDS011;24958;48.066;11.038;2022-12-29T07:59:11;1.20;;;1.10;;
39256;SDS011;24958;48.066;11.038;2022-12-29T08:01:39;1.87;;;1.20;;
39256;SDS011;24958;48.066;11.038;2022-12-29T08:04:06;1.30;;;1.20;;
39256;SDS011;24958;48.066;11.038;2022-12-29T08:06:32;1.20;;;1.10;;
39256;SDS011;24958;48.066;11.038;2022-12-29T08:08:58;1.90;;;1.00;;
39256;SDS011;24958;48.066;11.038;2022-12-29T08:11:25;1.30;;;1.20;;
39256;SDS011;24958;48.066;11.038;2022-12-29T08:13:52;2.30;;;1.30;;
39256;SDS011;24958;48.066;11.038;2022-12-29T08:16:18;1.40;;;1.00;;
39256;SDS011;24958;48.066;11.038;2022-12-29T08:18:44;1.20;;;1.10;;
39256;SDS011;24958;48.066;11.038;2022-12-29T08:21:10;1.37;;;1.27;;
39256;SDS011;24958;48.066;11.038;2022-12-29T08:23:36;1.97;;;1.30;;
39256;SDS011;24958;48.066;11.038;2022-12-29T08:26:03;1.30;;;1.20;;
39256;SDS011;24958;48.066;11.038;2022-12-29T08:28:30;1.23;;;1.10;;
39256;SDS011;24958;48.066;11.038;2022-12-29T08:31:00;1.93;;;1.30;;
39256;SDS011;24958;48.066;11.038;2022-12-29T08:33:26;2.23;;;1.10;;
39256;SDS011;24958;48.066;11.038;2022-12-29T08:35:58;1.73;;;1.17;;
39256;SDS011;24958;48.066;11.038;2022-12-29T08:38:24;1.80;;;1.20;;
39256;SDS011;24958;48.066;11.038;2022-12-29T08:40:51;2.17;;;1.10;;
39256;SDS011;24958;48.066;11.038;2022-12-29T08:43:17;2.88;;;1.27;;
39256;SDS011;24958;48.066;11.038;2022-12-29T08:45:43;1.30;;;1.20;;
39256;SDS011;24958;48.066;11.038;2022-12-29T08:48:09;1.90;;;1.10;;
39256;SDS011;24958;48.066;11.038;2022-12-29T08:50:35;1.10;;;1.00;;
39256;SDS011;24958;48.066;11.038;2022-12-29T08:53:01;1.70;;;1.20;;
39256;SDS011;24958;48.066;11.038;2022-12-29T08:55:28;2.35;;;1.30;;
39256;SDS011;24958;48.066;11.038;2022-12-29T08:57:54;1.77;;;1.17;;
39256;SDS011;24958;48.066;11.038;2022-12-29T09:00:20;2.33;;;1.17;;
39256;SDS011;24958;48.066;11.038;2022-12-29T09:02:46;2.97;;;1.20;;
39256;SDS011;24958;48.066;11.038;2022-12-29T09:05:13;1.88;;;1.30;;
39256;SDS011;24958;48.066;11.038;2022-12-29T09:07:39;2.08;;;1.10;;
39256;SDS011;24958;48.066;11.038;2022-12-29T09:10:05;1.55;;;1.10;;
39256;SDS011;24958;48.066;11.038;2022-12-29T09:12:31;1.45;;;1.10;;
39256;SDS011;24958;48.066;11.038;2022-12-29T09:14:57;1.55;;;1.17;;
39256;SDS011;24958;48.066;11.038;2022-12-29T09:17:23;4.28;;;1.30;;
39256;SDS011;24958;48.066;11.038;2022-12-29T09:20:15;2.72;;;1.20;;
39256;SDS011;24958;48.066;11.038;2022-12-29T09:22:41;1.23;;;1.00;;
39256;SDS011;24958;48.066;11.038;2022-12-29T09:25:08;1.10;;;1.00;;
39256;SDS011;24958;48.066;11.038;2022-12-29T09:27:34;1.30;;;1.00;;
39256;SDS011;24958;48.066;11.038;2022-12-29T09:30:00;1.40;;;1.10;;
39256;SDS011;24958;48.066;11.038;2022-12-29T09:32:26;1.60;;;1.10;;
39256;SDS011;24958;48.066;11.038;2022-12-29T09:34:52;1.80;;;1.42;;
39256;SDS011;24958;48.066;11.038;2022-12-29T09:37:18;1.30;;;1.20;;
39256;SDS011;24958;48.066;11.038;2022-12-29T09:39:44;1.95;;;1.20;;
39256;SDS011;24958;48.066;11.038;2022-12-29T09:42:22;1.10;;;1.00;;
39256;SDS011;24958;48.066;11.038;2022-12-29T09:47:34;1.30;;;1.20;;
39256;SDS011;24958;48.066;11.038;2022-12-29T09:50:02;2.90;;;1.20;;
39256;SDS011;24958;48.066;11.038;2022-12-29T09:52:34;1.27;;;1.17;;
39256;SDS011;24958;48.066;11.038;2022-12-29T09:57:34;2.88;;;1.20;;
39256;SDS011;24958;48.066;11.038;2022-12-29T10:00:09;2.08;;;1.30;;
39256;SDS011;24958;48.066;11.038;2022-12-29T10:05:03;1.33;;;1.23;;
39256;SDS011;24958;48.066;11.038;2022-12-29T10:07:40;2.47;;;1.67;;
39256;SDS011;24958;48.066;11.038;2022-12-29T10:10:17;2.25;;;1.63;;
39256;SDS011;24958;48.066;11.038;2022-12-29T10:25:28;1.20;;;1.10;;
39256;SDS011;24958;48.066;11.038;2022-12-29T10:27:57;1.73;;;1.33;;
39256;SDS011;24958;48.066;11.038;2022-12-29T10:30:24;1.52;;;1.42;;
39256;SDS011;24958;48.066;11.038;2022-12-29T10:32:52;1.45;;;1.35;;
39256;SDS011;24958;48.066;11.038;2022-12-29T10:35:24;1.55;;;1.13;;
39256;SDS011;24958;48.066;11.038;2022-12-29T10:37:58;1.45;;;1.35;;
39256;SDS011;24958;48.066;11.038;2022-12-29T10:42:55;1.30;;;1.20;;
39256;SDS011;24958;48.066;11.038;2022-12-29T10:45:23;1.20;;;1.10;;
39256;SDS011;24958;48.066;11.038;2022-12-29T10:47:53;2.10;;;1.20;;
39256;SDS011;24958;48.066;11.038;2022-12-29T10:50:20;1.38;;;1.27;;
39256;SDS011;24958;48.066;11.038;2022-12-29T10:52:46;1.50;;;1.30;;
39256;SDS011;24958;48.066;11.038;2022-12-29T10:55:15;2.05;;;1.40;;
39256;SDS011;24958;48.066;11.038;2022-12-29T10:57:45;2.25;;;1.58;;
39256;SDS011;24958;48.066;11.038;2022-12-29T11:00:12;1.75;;;1.35;;
39256;SDS011;24958;48.066;11.038;2022-12-29T11:02:47;1.63;;;1.38;;
39256;SDS011;24958;48.066;11.038;2022-12-29T11:07:59;1.63;;;1.20;;
39256;SDS011;24958;48.066;11.038;2022-12-29T11:10:34;1.92;;;1.45;;
39256;SDS011;24958;48.066;11.038;2022-12-29T11:13:25;1.10;;;0.98;;
39256;SDS011;24958;48.066;11.038;2022-12-29T11:15:50;1.70;;;1.08;;
39256;SDS011;24958;48.066;11.038;2022-12-29T11:18:26;1.10;;;1.00;;
39256;SDS011;24958;48.066;11.038;2022-12-29T11:20:57;1.35;;;0.88;;
39256;SDS011;24958;48.066;11.038;2022-12-29T11:23:38;1.45;;;1.00;;
39256;SDS011;24958;48.066;11.038;2022-12-29T11:26:06;1.58;;;1.00;;
39256;SDS011;24958;48.066;11.038;2022-12-29T11:28:32;1.85;;;0.90;;
39256;SDS011;24958;48.066;11.038;2022-12-29T11:30:59;1.02;;;0.93;;
39256;SDS011;24958;48.066;11.038;2022-12-29T11:33:27;1.35;;;1.17;;
39256;SDS011;24958;48.066;11.038;2022-12-29T11:35:56;1.10;;;1.00;;
39256;SDS011;24958;48.066;11.038;2022-12-29T11:38:24;1.10;;;1.00;;
39256;SDS011;24958;48.066;11.038;2022-12-29T11:40:51;1.40;;;1.00;;
39256;SDS011;24958;48.066;11.038;2022-12-29T11:43:39;1.10;;;1.00;;
39256;SDS011;24958;48.066;11.038;2022-12-29T11:46:04;1.33;;;1.02;;
39256;SDS011;24958;48.066;11.038;2022-12-29T11:48:38;0.98;;;0.90;;
39256;SDS011;24958;48.066;11.038;2022-12-29T11:51:05;1.10;;;0.90;;
39256;SDS011;24958;48.066;11.038;2022-12-29T11:53:35;1.58;;;1.00;;
39256;SDS011;24958;48.066;11.038;2022-12-29T11:56:05;1.20;;;1.10;;
39256;SDS011;24958;48.066;11.038;2022-12-29T11:58:35;1.17;;;1.08;;
39256;SDS011;24958;48.066;11.038;2022-12-29T12:01:13;1.88;;;1.10;;
39256;SDS011;24958;48.066;11.038;2022-12-29T12:03:46;1.40;;;1.20;;
39256;SDS011;24958;48.066;11.038;2022-12-29T12:06:14;1.42;;;1.00;;
39256;SDS011;24958;48.066;11.038;2022-12-29T12:08:50;1.45;;;1.00;;
39256;SDS011;24958;48.066;11.038;2022-12-29T12:11:26;1.48;;;1.10;;
39256;SDS011;24958;48.066;11.038;2022-12-29T12:14:23;1.10;;;1.00;;
39256;SDS011;24958;48.066;11.038;2022-12-29T12:16:57;1.70;;;0.90;;
39256;SDS011;24958;48.066;11.038;2022-12-29T12:22:45;1.60;;;1.42;;
39256;SDS011;24958;48.066;11.038;2022-12-29T12:27:40;1.20;;;1.10;;
39256;SDS011;24958;48.066;11.038;2022-12-29T12:35:11;1.33;;;1.20;;
39256;SDS011;24958;48.066;11.038;2022-12-29T12:45:41;1.10;;;0.95;;
39256;SDS011;24958;48.066;11.038;2022-12-29T12:51:08;1.52;;;1.00;;
39256;SDS011;24958;48.066;11.038;2022-12-29T13:06:47;0.80;;;0.80;;
39256;SDS011;24958;48.066;11.038;2022-12-29T13:09:20;1.52;;;0.98;;
39256;SDS011;24958;48.066;11.038;2022-12-29T13:22:17;1.48;;;1.02;;
39256;SDS011;24958;48.066;11.038;2022-12-29T13:24:47;1.30;;;0.90;;
39256;SDS011;24958;48.066;11.038;2022-12-29T13:37:58;1.70;;;1.00;;
39256;SDS011;24958;48.066;11.038;2022-12-29T13:40:26;1.05;;;0.90;;
39256;SDS011;24958;48.066;11.038;2022-12-29T13:42:55;1.20;;;1.00;;
39256;SDS011;24958;48.066;11.038;2022-12-29T13:45:26;1.55;;;0.90;;
39256;SDS011;24958;48.066;11.038;2022-12-29T13:47:55;2.35;;;0.75;;
39256;SDS011;24958;48.066;11.038;2022-12-29T13:50:24;1.80;;;1.00;;
39256;SDS011;24958;48.066;11.038;2022-12-29T14:03:43;2.80;;;1.08;;
39256;SDS011;24958;48.066;11.038;2022-12-29T14:08:36;1.73;;;1.20;;
39256;SDS011;24958;48.066;11.038;2022-12-29T14:11:06;1.98;;;1.20;;
39256;SDS011;24958;48.066;11.038;2022-12-29T14:13:33;2.15;;;1.08;;
39256;SDS011;24958;48.066;11.038;2022-12-29T14:16:03;1.10;;;1.00;;
39256;SDS011;24958;48.066;11.038;2022-12-29T14:18:31;2.53;;;1.20;;
39256;SDS011;24958;48.066;11.038;2022-12-29T14:25:56;1.90;;;1.00;;
39256;SDS011;24958;48.066;11.038;2022-12-29T14:28:30;2.33;;;2.10;;
39256;SDS011;24958;48.066;11.038;2022-12-29T14:30:57;1.70;;;1.60;;
39256;SDS011;24958;48.066;11.038;2022-12-29T14:33:24;2.40;;;1.67;;
39256;SDS011;24958;48.066;11.038;2022-12-29T14:35:51;2.28;;;1.23;;
39256;SDS011;24958;48.066;11.038;2022-12-29T14:38:36;1.20;;;1.10;;
39256;SDS011;24958;48.066;11.038;2022-12-29T14:41:17;1.15;;;1.05;;
39256;SDS011;24958;48.066;11.038;2022-12-29T14:43:54;1.33;;;1.17;;
39256;SDS011;24958;48.066;11.038;2022-12-29T14:46:20;1.30;;;1.00;;
39256;SDS011;24958;48.066;11.038;2022-12-29T14:48:46;1.40;;;0.90;;
39256;SDS011;24958;48.066;11.038;2022-12-29T14:51:29;1.15;;;1.00;;
39256;SDS011;24958;48.066;11.038;2022-12-29T14:53:56;1.50;;;1.10;;
39256;SDS011;24958;48.066;11.038;2022-12-29T14:56:27;1.83;;;1.05;;
39256;SDS011;24958;48.066;11.038;2022-12-29T14:58:57;1.50;;;1.27;;
39256;SDS011;24958;48.066;11.038;2022-12-29T15:03:51;1.20;;;1.10;;
39256;SDS011;24958;48.066;11.038;2022-12-29T15:06:19;1.17;;;1.10;;
39256;SDS011;24958;48.066;11.038;2022-12-29T15:14:23;1.83;;;1.73;;
39256;SDS011;24958;48.066;11.038;2022-12-29T15:16:49;1.70;;;1.60;;
39256;SDS011;24958;48.066;11.038;2022-12-29T15:19:22;1.47;;;1.10;;
39256;SDS011;24958;48.066;11.038;2022-12-29T15:21:49;1.17;;;1.08;;
39256;SDS011;24958;48.066;11.038;2022-12-29T15:24:15;1.20;;;1.10;;
39256;SDS011;24958;48.066;11.038;2022-12-29T15:26:42;1.27;;;1.00;;
39256;SDS011;24958;48.066;11.038;2022-12-29T15:32:00;1.98;;;1.33;;
39256;SDS011;24958;48.066;11.038;2022-12-29T15:34:29;1.30;;;1.10;;
39256;SDS011;24958;48.066;11.038;2022-12-29T15:36:55;1.93;;;1.20;;
39256;SDS011;24958;48.066;11.038;2022-12-29T15:39:28;1.60;;;1.20;;
39256;SDS011;24958;48.066;11.038;2022-12-29T15:41:55;1.70;;;1.23;;
39256;SDS011;24958;48.066;11.038;2022-12-29T15:44:29;1.83;;;1.60;;
39256;SDS011;24958;48.066;11.038;2022-12-29T15:46:57;1.73;;;1.00;;
39256;SDS011;24958;48.066;11.038;2022-12-29T15:49:27;2.58;;;1.30;;
39256;SDS011;24958;48.066;11.038;2022-12-29T15:51:53;1.63;;;1.30;;
39256;SDS011;24958;48.066;11.038;2022-12-29T15:54:20;1.33;;;1.23;;
39256;SDS011;24958;48.066;11.038;2022-12-29T15:56:47;1.47;;;1.37;;
39256;SDS011;24958;48.066;11.038;2022-12-29T15:59:27;2.17;;;1.30;;
39256;SDS011;24958;48.066;11.038;2022-12-29T16:01:54;1.40;;;1.30;;
39256;SDS011;24958;48.066;11.038;2022-12-29T16:04:21;2.13;;;1.60;;
39256;SDS011;24958;48.066;11.038;2022-12-29T16:06:59;2.38;;;1.30;;
39256;SDS011;24958;48.066;11.038;2022-12-29T16:09:29;1.40;;;1.30;;
39256;SDS011;24958;48.066;11.038;2022-12-29T16:11:57;1.67;;;1.50;;
39256;SDS011;24958;48.066;11.038;2022-12-29T16:16:55;1.48;;;1.23;;
39256;SDS011;24958;48.066;11.038;2022-12-29T16:21:48;2.00;;;1.33;;
39256;SDS011;24958;48.066;11.038;2022-12-29T16:24:15;1.67;;;1.30;;
39256;SDS011;24958;48.066;11.038;2022-12-29T16:26:56;1.60;;;1.40;;
39256;SDS011;24958;48.066;11.038;2022-12-29T16:29:24;1.90;;;1.30;;
39256;SDS011;24958;48.066;11.038;2022-12-29T16:31:54;1.90;;;1.27;;
39256;SDS011;24958;48.066;11.038;2022-12-29T16:37:05;2.50;;;1.20;;
39256;SDS011;24958;48.066;11.038;2022-12-29T16:39:34;1.45;;;1.23;;
39256;SDS011;24958;48.066;11.038;2022-12-29T16:42:01;1.40;;;1.20;;
39256;SDS011;24958;48.066;11.038;2022-12-29T16:44:47;1.87;;;1.20;;
39256;SDS011;24958;48.066;11.038;2022-12-29T16:49:39;1.90;;;1.17;;
39256;SDS011;24958;48.066;11.038;2022-12-29T16:52:39;1.40;;;1.20;;
39256;SDS011;24958;48.066;11.038;2022-12-29T16:54:59;1.87;;;1.00;;
39256;SDS011;24958;48.066;11.038;2022-12-29T16:57:33;1.30;;;1.20;;
39256;SDS011;24958;48.066;11.038;2022-12-29T17:00:03;1.67;;;1.23;;
39256;SDS011;24958;48.066;11.038;2022-12-29T17:02:30;1.43;;;1.13;;
39256;SDS011;24958;48.066;11.038;2022-12-29T17:04:57;1.27;;;1.17;;
39256;SDS011;24958;48.066;11.038;2022-12-29T17:07:24;2.40;;;1.33;;
39256;SDS011;24958;48.066;11.038;2022-12-29T17:09:50;1.73;;;1.20;;
39256;SDS011;24958;48.066;11.038;2022-12-29T17:12:19;1.57;;;1.27;;
39256;SDS011;24958;48.066;11.038;2022-12-29T17:14:53;3.37;;;2.07;;
39256;SDS011;24958;48.066;11.038;2022-12-29T17:17:38;2.07;;;1.27;;
39256;SDS011;24958;48.066;11.038;2022-12-29T17:22:31;1.37;;;1.27;;